South Woodbury, Vermont
Current Conditions -  °F | °C
As of 7:51 AM on Thursday 27 Nov 2014 (Local Time) from KMPV Reporting Station
Overcast Overcast  
Wind Chill: 16°   Ceiling: 2100
Heat Index: 24°   Visibility: 10mi
Dew Point: 20°   Wind: 7mph
Humidity: 84%   Direction: 360°N
Pressure: 29.94"   Gusts: NA
Location:  44.3541°N, 72.4394°W
Report Text: KMPV 271251Z AUTO 36006KT 10SM OVC021 M04/M07 A2994 RMK AO2 SLP157 T10441067
Loading
Personal Weather Stations






























Interactive Weather Map New forecast layout! Learn more

10-Day Weather Forecast

Advertisements
Track Severe Weather on mobile